sensor_id;sensor_type;location;lat;lon;timestamp;P1;durP1;ratioP1;P2;durP2;ratioP2
48215;SDS011;34005;48.844;10.098;2023-09-30T00:01:34;8.70;;;3.60;;
48215;SDS011;34005;48.844;10.098;2023-09-30T00:04:03;7.53;;;3.50;;
48215;SDS011;34005;48.844;10.098;2023-09-30T00:06:34;9.00;;;3.70;;
48215;SDS011;34005;48.844;10.098;2023-09-30T00:09:02;8.95;;;4.07;;
48215;SDS011;34005;48.844;10.098;2023-09-30T00:11:31;10.50;;;3.90;;
48215;SDS011;34005;48.844;10.098;2023-09-30T00:14:10;7.90;;;3.53;;
48215;SDS011;34005;48.844;10.098;2023-09-30T00:16:44;7.15;;;3.38;;
48215;SDS011;34005;48.844;10.098;2023-09-30T00:19:17;9.07;;;3.75;;
48215;SDS011;34005;48.844;10.098;2023-09-30T00:25:37;8.50;;;3.10;;
48215;SDS011;34005;48.844;10.098;2023-09-30T00:28:37;8.02;;;3.97;;
48215;SDS011;34005;48.844;10.098;2023-09-30T00:31:34;4.93;;;3.00;;
48215;SDS011;34005;48.844;10.098;2023-09-30T00:34:02;9.20;;;3.63;;
48215;SDS011;34005;48.844;10.098;2023-09-30T00:36:31;7.07;;;3.25;;
48215;SDS011;34005;48.844;10.098;2023-09-30T00:38:59;8.07;;;3.85;;
48215;SDS011;34005;48.844;10.098;2023-09-30T00:41:28;8.60;;;3.83;;
48215;SDS011;34005;48.844;10.098;2023-09-30T00:43:56;6.30;;;3.25;;
48215;SDS011;34005;48.844;10.098;2023-09-30T00:46:26;7.40;;;3.28;;
48215;SDS011;34005;48.844;10.098;2023-09-30T00:49:05;11.82;;;4.25;;
48215;SDS011;34005;48.844;10.098;2023-09-30T00:52:02;6.80;;;3.25;;
48215;SDS011;34005;48.844;10.098;2023-09-30T00:54:51;7.97;;;4.10;;
48215;SDS011;34005;48.844;10.098;2023-09-30T00:57:33;7.38;;;3.83;;
48215;SDS011;34005;48.844;10.098;2023-09-30T01:00:10;5.57;;;3.63;;
48215;SDS011;34005;48.844;10.098;2023-09-30T01:02:46;5.78;;;3.22;;
48215;SDS011;34005;48.844;10.098;2023-09-30T01:05:37;6.97;;;3.05;;
48215;SDS011;34005;48.844;10.098;2023-09-30T01:08:15;6.45;;;3.20;;
48215;SDS011;34005;48.844;10.098;2023-09-30T01:11:06;8.23;;;3.58;;
48215;SDS011;34005;48.844;10.098;2023-09-30T01:14:39;7.57;;;3.92;;
48215;SDS011;34005;48.844;10.098;2023-09-30T01:17:35;8.20;;;3.30;;
48215;SDS011;34005;48.844;10.098;2023-09-30T01:20:46;7.18;;;3.10;;
48215;SDS011;34005;48.844;10.098;2023-09-30T01:26:21;4.75;;;2.55;;
48215;SDS011;34005;48.844;10.098;2023-09-30T01:28:53;5.90;;;2.60;;
48215;SDS011;34005;48.844;10.098;2023-09-30T01:31:59;6.85;;;3.10;;
48215;SDS011;34005;48.844;10.098;2023-09-30T01:35:02;6.53;;;3.10;;
48215;SDS011;34005;48.844;10.098;2023-09-30T01:37:35;4.10;;;2.28;;
48215;SDS011;34005;48.844;10.098;2023-09-30T01:43:41;7.80;;;3.00;;
48215;SDS011;34005;48.844;10.098;2023-09-30T01:46:38;6.72;;;2.60;;
48215;SDS011;34005;48.844;10.098;2023-09-30T01:53:13;5.47;;;3.35;;
48215;SDS011;34005;48.844;10.098;2023-09-30T01:56:21;7.40;;;2.90;;
48215;SDS011;34005;48.844;10.098;2023-09-30T01:59:40;6.18;;;3.00;;
48215;SDS011;34005;48.844;10.098;2023-09-30T02:02:25;5.45;;;2.72;;
48215;SDS011;34005;48.844;10.098;2023-09-30T02:05:36;4.32;;;2.70;;
48215;SDS011;34005;48.844;10.098;2023-09-30T02:08:57;5.13;;;2.53;;
48215;SDS011;34005;48.844;10.098;2023-09-30T02:14:40;7.65;;;3.47;;
48215;SDS011;34005;48.844;10.098;2023-09-30T02:17:27;3.83;;;2.67;;
48215;SDS011;34005;48.844;10.098;2023-09-30T02:20:10;6.32;;;2.97;;
48215;SDS011;34005;48.844;10.098;2023-09-30T02:23:05;6.55;;;2.65;;
48215;SDS011;34005;48.844;10.098;2023-09-30T02:25:37;5.60;;;3.03;;
48215;SDS011;34005;48.844;10.098;2023-09-30T02:28:24;7.05;;;2.75;;
48215;SDS011;34005;48.844;10.098;2023-09-30T02:30:54;6.35;;;2.58;;
48215;SDS011;34005;48.844;10.098;2023-09-30T02:33:30;4.75;;;2.40;;
48215;SDS011;34005;48.844;10.098;2023-09-30T02:36:15;4.35;;;2.63;;
48215;SDS011;34005;48.844;10.098;2023-09-30T02:38:49;4.85;;;2.45;;
48215;SDS011;34005;48.844;10.098;2023-09-30T02:41:24;3.63;;;2.58;;
48215;SDS011;34005;48.844;10.098;2023-09-30T02:44:20;3.90;;;2.63;;
48215;SDS011;34005;48.844;10.098;2023-09-30T02:46:53;4.43;;;2.33;;
48215;SDS011;34005;48.844;10.098;2023-09-30T02:49:33;4.40;;;2.67;;
48215;SDS011;34005;48.844;10.098;2023-09-30T02:52:17;5.30;;;2.95;;
48215;SDS011;34005;48.844;10.098;2023-09-30T02:55:16;4.57;;;2.35;;
48215;SDS011;34005;48.844;10.098;2023-09-30T02:59:14;4.40;;;2.30;;
48215;SDS011;34005;48.844;10.098;2023-09-30T03:02:36;2.83;;;1.88;;
48215;SDS011;34005;48.844;10.098;2023-09-30T03:05:17;6.40;;;2.50;;
48215;SDS011;34005;48.844;10.098;2023-09-30T03:07:49;3.92;;;2.50;;
48215;SDS011;34005;48.844;10.098;2023-09-30T03:10:22;3.03;;;1.95;;
48215;SDS011;34005;48.844;10.098;2023-09-30T03:12:52;3.35;;;2.10;;
48215;SDS011;34005;48.844;10.098;2023-09-30T03:15:29;5.05;;;2.45;;
48215;SDS011;34005;48.844;10.098;2023-09-30T03:21:01;4.30;;;2.72;;
48215;SDS011;34005;48.844;10.098;2023-09-30T03:23:38;3.15;;;2.17;;
48215;SDS011;34005;48.844;10.098;2023-09-30T03:26:12;4.35;;;2.40;;
48215;SDS011;34005;48.844;10.098;2023-09-30T03:28:58;3.63;;;2.30;;
48215;SDS011;34005;48.844;10.098;2023-09-30T03:31:45;3.65;;;2.40;;
48215;SDS011;34005;48.844;10.098;2023-09-30T03:34:32;3.70;;;2.40;;
48215;SDS011;34005;48.844;10.098;2023-09-30T03:37:04;6.07;;;3.22;;
48215;SDS011;34005;48.844;10.098;2023-09-30T03:40:11;4.10;;;2.88;;
48215;SDS011;34005;48.844;10.098;2023-09-30T03:42:48;2.88;;;2.45;;
48215;SDS011;34005;48.844;10.098;2023-09-30T03:45:37;4.55;;;2.47;;
48215;SDS011;34005;48.844;10.098;2023-09-30T03:48:23;5.60;;;2.78;;
48215;SDS011;34005;48.844;10.098;2023-09-30T03:51:35;5.05;;;3.20;;
48215;SDS011;34005;48.844;10.098;2023-09-30T03:57:59;4.55;;;3.50;;
48215;SDS011;34005;48.844;10.098;2023-09-30T04:00:32;5.32;;;3.03;;
48215;SDS011;34005;48.844;10.098;2023-09-30T04:03:07;6.38;;;3.00;;
48215;SDS011;34005;48.844;10.098;2023-09-30T04:05:37;4.78;;;3.08;;
48215;SDS011;34005;48.844;10.098;2023-09-30T04:08:10;5.00;;;2.97;;
48215;SDS011;34005;48.844;10.098;2023-09-30T04:13:59;4.45;;;2.45;;
48215;SDS011;34005;48.844;10.098;2023-09-30T04:19:39;5.43;;;3.40;;
48215;SDS011;34005;48.844;10.098;2023-09-30T04:22:24;4.72;;;2.60;;
48215;SDS011;34005;48.844;10.098;2023-09-30T04:28:30;3.85;;;2.75;;
48215;SDS011;34005;48.844;10.098;2023-09-30T04:31:07;4.40;;;3.00;;
48215;SDS011;34005;48.844;10.098;2023-09-30T04:33:47;4.85;;;2.97;;
48215;SDS011;34005;48.844;10.098;2023-09-30T04:36:25;6.10;;;2.92;;
48215;SDS011;34005;48.844;10.098;2023-09-30T04:39:12;7.00;;;3.55;;
48215;SDS011;34005;48.844;10.098;2023-09-30T04:42:02;6.75;;;3.00;;
48215;SDS011;34005;48.844;10.098;2023-09-30T04:45:04;6.63;;;3.83;;
48215;SDS011;34005;48.844;10.098;2023-09-30T04:47:34;4.63;;;3.20;;
48215;SDS011;34005;48.844;10.098;2023-09-30T04:50:07;6.53;;;3.30;;
48215;SDS011;34005;48.844;10.098;2023-09-30T04:52:53;7.07;;;3.72;;
48215;SDS011;34005;48.844;10.098;2023-09-30T04:56:02;8.52;;;4.90;;
48215;SDS011;34005;48.844;10.098;2023-09-30T04:58:38;5.80;;;4.05;;
48215;SDS011;34005;48.844;10.098;2023-09-30T05:01:26;5.38;;;3.90;;
48215;SDS011;34005;48.844;10.098;2023-09-30T05:03:56;6.00;;;4.10;;
48215;SDS011;34005;48.844;10.098;2023-09-30T05:06:29;7.78;;;4.03;;
48215;SDS011;34005;48.844;10.098;2023-09-30T05:09:07;5.68;;;3.95;;
48215;SDS011;34005;48.844;10.098;2023-09-30T05:11:59;8.63;;;4.10;;
48215;SDS011;34005;48.844;10.098;2023-09-30T05:15:07;8.10;;;4.03;;
48215;SDS011;34005;48.844;10.098;2023-09-30T05:23:36;4.85;;;3.88;;
48215;SDS011;34005;48.844;10.098;2023-09-30T05:26:04;7.88;;;4.35;;
48215;SDS011;34005;48.844;10.098;2023-09-30T05:28:32;7.90;;;4.28;;
48215;SDS011;34005;48.844;10.098;2023-09-30T05:31:00;5.00;;;3.92;;
48215;SDS011;34005;48.844;10.098;2023-09-30T05:33:30;7.25;;;3.53;;
48215;SDS011;34005;48.844;10.098;2023-09-30T05:35:57;5.28;;;3.78;;
48215;SDS011;34005;48.844;10.098;2023-09-30T05:38:26;8.98;;;3.97;;
48215;SDS011;34005;48.844;10.098;2023-09-30T05:40:53;10.57;;;5.13;;
48215;SDS011;34005;48.844;10.098;2023-09-30T05:43:21;6.80;;;3.60;;
48215;SDS011;34005;48.844;10.098;2023-09-30T05:45:49;4.78;;;3.53;;
48215;SDS011;34005;48.844;10.098;2023-09-30T05:48:21;4.70;;;3.08;;
48215;SDS011;34005;48.844;10.098;2023-09-30T05:50:50;6.07;;;3.28;;
48215;SDS011;34005;48.844;10.098;2023-09-30T05:53:18;5.57;;;3.28;;
48215;SDS011;34005;48.844;10.098;2023-09-30T05:55:47;8.35;;;3.95;;
48215;SDS011;34005;48.844;10.098;2023-09-30T05:58:15;5.07;;;3.65;;
48215;SDS011;34005;48.844;10.098;2023-09-30T06:00:43;6.05;;;3.60;;
48215;SDS011;34005;48.844;10.098;2023-09-30T06:03:11;7.38;;;4.18;;
48215;SDS011;34005;48.844;10.098;2023-09-30T06:05:39;7.63;;;5.00;;
48215;SDS011;34005;48.844;10.098;2023-09-30T06:08:10;5.32;;;4.15;;
48215;SDS011;34005;48.844;10.098;2023-09-30T06:10:40;4.57;;;4.03;;
48215;SDS011;34005;48.844;10.098;2023-09-30T06:13:10;6.18;;;4.10;;
48215;SDS011;34005;48.844;10.098;2023-09-30T06:15:39;7.25;;;4.15;;
48215;SDS011;34005;48.844;10.098;2023-09-30T06:18:08;4.63;;;3.63;;
48215;SDS011;34005;48.844;10.098;2023-09-30T06:20:40;9.25;;;3.75;;
48215;SDS011;34005;48.844;10.098;2023-09-30T06:23:09;6.47;;;4.00;;
48215;SDS011;34005;48.844;10.098;2023-09-30T06:25:37;6.63;;;3.92;;
48215;SDS011;34005;48.844;10.098;2023-09-30T06:28:06;4.85;;;3.50;;
48215;SDS011;34005;48.844;10.098;2023-09-30T06:30:34;4.75;;;3.20;;
48215;SDS011;34005;48.844;10.098;2023-09-30T06:33:03;8.70;;;4.05;;
48215;SDS011;34005;48.844;10.098;2023-09-30T06:35:32;3.95;;;3.47;;
48215;SDS011;34005;48.844;10.098;2023-09-30T06:38:03;5.07;;;3.57;;
48215;SDS011;34005;48.844;10.098;2023-09-30T06:40:34;6.15;;;3.40;;
48215;SDS011;34005;48.844;10.098;2023-09-30T06:43:06;7.18;;;4.35;;
48215;SDS011;34005;48.844;10.098;2023-09-30T06:45:34;5.38;;;3.70;;
48215;SDS011;34005;48.844;10.098;2023-09-30T06:48:07;5.25;;;3.80;;
48215;SDS011;34005;48.844;10.098;2023-09-30T06:50:39;7.13;;;4.38;;
48215;SDS011;34005;48.844;10.098;2023-09-30T06:53:07;6.90;;;3.92;;
48215;SDS011;34005;48.844;10.098;2023-09-30T06:55:38;5.18;;;3.65;;
48215;SDS011;34005;48.844;10.098;2023-09-30T06:58:06;5.93;;;3.47;;
48215;SDS011;34005;48.844;10.098;2023-09-30T07:00:35;8.82;;;4.40;;
48215;SDS011;34005;48.844;10.098;2023-09-30T07:03:03;5.70;;;3.53;;
48215;SDS011;34005;48.844;10.098;2023-09-30T07:05:31;5.68;;;3.95;;
48215;SDS011;34005;48.844;10.098;2023-09-30T07:07:59;9.80;;;5.00;;
48215;SDS011;34005;48.844;10.098;2023-09-30T07:10:26;5.03;;;3.80;;
48215;SDS011;34005;48.844;10.098;2023-09-30T07:12:57;6.07;;;3.47;;
48215;SDS011;34005;48.844;10.098;2023-09-30T07:15:24;7.70;;;3.92;;
48215;SDS011;34005;48.844;10.098;2023-09-30T07:17:52;6.72;;;4.13;;
48215;SDS011;34005;48.844;10.098;2023-09-30T07:20:20;5.32;;;3.88;;
48215;SDS011;34005;48.844;10.098;2023-09-30T07:22:48;4.63;;;3.85;;
48215;SDS011;34005;48.844;10.098;2023-09-30T07:25:32;5.60;;;4.30;;
48215;SDS011;34005;48.844;10.098;2023-09-30T07:28:02;7.90;;;4.95;;
48215;SDS011;34005;48.844;10.098;2023-09-30T07:30:30;6.95;;;3.65;;
48215;SDS011;34005;48.844;10.098;2023-09-30T07:32:57;5.55;;;4.07;;
48215;SDS011;34005;48.844;10.098;2023-09-30T07:35:25;5.88;;;4.00;;
48215;SDS011;34005;48.844;10.098;2023-09-30T07:37:52;5.13;;;3.83;;
48215;SDS011;34005;48.844;10.098;2023-09-30T07:40:20;4.85;;;3.53;;
48215;SDS011;34005;48.844;10.098;2023-09-30T07:42:48;7.38;;;4.38;;
48215;SDS011;34005;48.844;10.098;2023-09-30T07:45:17;9.10;;;4.95;;
48215;SDS011;34005;48.844;10.098;2023-09-30T07:47:46;7.88;;;4.75;;
48215;SDS011;34005;48.844;10.098;2023-09-30T07:50:14;9.13;;;5.22;;
48215;SDS011;34005;48.844;10.098;2023-09-30T07:52:42;7.63;;;4.22;;
48215;SDS011;34005;48.844;10.098;2023-09-30T07:55:10;6.82;;;3.90;;
48215;SDS011;34005;48.844;10.098;2023-09-30T07:57:39;6.78;;;4.55;;
48215;SDS011;34005;48.844;10.098;2023-09-30T08:00:09;7.97;;;4.82;;
48215;SDS011;34005;48.844;10.098;2023-09-30T08:02:43;8.27;;;5.20;;
48215;SDS011;34005;48.844;10.098;2023-09-30T08:05:11;8.23;;;4.25;;
48215;SDS011;34005;48.844;10.098;2023-09-30T08:07:39;7.25;;;4.70;;
48215;SDS011;34005;48.844;10.098;2023-09-30T08:10:08;5.30;;;3.75;;
48215;SDS011;34005;48.844;10.098;2023-09-30T08:12:39;4.28;;;3.33;;
48215;SDS011;34005;48.844;10.098;2023-09-30T08:15:08;6.85;;;4.10;;
48215;SDS011;34005;48.844;10.098;2023-09-30T08:17:39;7.03;;;4.55;;
48215;SDS011;34005;48.844;10.098;2023-09-30T08:20:09;6.68;;;3.85;;
48215;SDS011;34005;48.844;10.098;2023-09-30T08:22:37;7.63;;;3.92;;
48215;SDS011;34005;48.844;10.098;2023-09-30T08:25:05;5.30;;;4.20;;
48215;SDS011;34005;48.844;10.098;2023-09-30T08:27:33;6.20;;;4.03;;
48215;SDS011;34005;48.844;10.098;2023-09-30T08:30:01;5.72;;;3.95;;
48215;SDS011;34005;48.844;10.098;2023-09-30T08:32:32;5.97;;;3.70;;
48215;SDS011;34005;48.844;10.098;2023-09-30T08:35:00;4.88;;;3.60;;
48215;SDS011;34005;48.844;10.098;2023-09-30T08:37:30;7.15;;;4.10;;
48215;SDS011;34005;48.844;10.098;2023-09-30T08:39:59;5.55;;;3.58;;
48215;SDS011;34005;48.844;10.098;2023-09-30T08:42:26;9.25;;;4.00;;
48215;SDS011;34005;48.844;10.098;2023-09-30T08:44:59;5.50;;;3.70;;
48215;SDS011;34005;48.844;10.098;2023-09-30T08:47:27;7.90;;;3.85;;
48215;SDS011;34005;48.844;10.098;2023-09-30T08:49:55;7.65;;;3.80;;
48215;SDS011;34005;48.844;10.098;2023-09-30T08:52:33;6.53;;;3.63;;
48215;SDS011;34005;48.844;10.098;2023-09-30T08:55:06;7.30;;;3.72;;
48215;SDS011;34005;48.844;10.098;2023-09-30T08:57:34;7.18;;;3.95;;
48215;SDS011;34005;48.844;10.098;2023-09-30T09:00:06;9.73;;;4.50;;
48215;SDS011;34005;48.844;10.098;2023-09-30T09:02:37;7.93;;;3.90;;
48215;SDS011;34005;48.844;10.098;2023-09-30T09:05:06;9.90;;;4.47;;
48215;SDS011;34005;48.844;10.098;2023-09-30T09:07:36;5.05;;;3.55;;
48215;SDS011;34005;48.844;10.098;2023-09-30T09:10:04;8.68;;;4.10;;
48215;SDS011;34005;48.844;10.098;2023-09-30T09:12:34;6.18;;;3.67;;
48215;SDS011;34005;48.844;10.098;2023-09-30T09:15:04;5.93;;;3.83;;
48215;SDS011;34005;48.844;10.098;2023-09-30T09:17:40;8.02;;;4.50;;
48215;SDS011;34005;48.844;10.098;2023-09-30T09:20:09;6.95;;;3.92;;
48215;SDS011;34005;48.844;10.098;2023-09-30T09:22:42;6.13;;;3.22;;
48215;SDS011;34005;48.844;10.098;2023-09-30T09:25:10;7.32;;;4.30;;
48215;SDS011;34005;48.844;10.098;2023-09-30T09:27:38;7.75;;;4.97;;
48215;SDS011;34005;48.844;10.098;2023-09-30T09:30:13;7.32;;;4.28;;
48215;SDS011;34005;48.844;10.098;2023-09-30T09:32:52;6.93;;;3.75;;
48215;SDS011;34005;48.844;10.098;2023-09-30T09:35:21;6.75;;;3.50;;
48215;SDS011;34005;48.844;10.098;2023-09-30T09:37:56;5.95;;;3.83;;
48215;SDS011;34005;48.844;10.098;2023-09-30T09:40:25;5.68;;;3.40;;
48215;SDS011;34005;48.844;10.098;2023-09-30T09:42:54;6.35;;;4.25;;
48215;SDS011;34005;48.844;10.098;2023-09-30T09:45:22;7.88;;;4.40;;
48215;SDS011;34005;48.844;10.098;2023-09-30T09:47:52;8.10;;;4.22;;
48215;SDS011;34005;48.844;10.098;2023-09-30T09:50:21;6.55;;;3.75;;
48215;SDS011;34005;48.844;10.098;2023-09-30T09:52:52;6.10;;;3.65;;
48215;SDS011;34005;48.844;10.098;2023-09-30T09:55:23;6.25;;;3.90;;
48215;SDS011;34005;48.844;10.098;2023-09-30T09:57:53;5.18;;;2.90;;
48215;SDS011;34005;48.844;10.098;2023-09-30T10:00:22;6.70;;;3.47;;
48215;SDS011;34005;48.844;10.098;2023-09-30T10:02:51;5.28;;;3.00;;
48215;SDS011;34005;48.844;10.098;2023-09-30T10:05:20;6.25;;;3.55;;
48215;SDS011;34005;48.844;10.098;2023-09-30T10:07:50;7.50;;;3.25;;
48215;SDS011;34005;48.844;10.098;2023-09-30T10:10:21;5.95;;;3.47;;
48215;SDS011;34005;48.844;10.098;2023-09-30T10:12:51;6.07;;;3.42;;
48215;SDS011;34005;48.844;10.098;2023-09-30T10:15:37;6.28;;;3.42;;
48215;SDS011;34005;48.844;10.098;2023-09-30T10:18:09;6.38;;;2.78;;
48215;SDS011;34005;48.844;10.098;2023-09-30T10:20:42;7.32;;;3.40;;
48215;SDS011;34005;48.844;10.098;2023-09-30T10:23:18;5.68;;;3.42;;
48215;SDS011;34005;48.844;10.098;2023-09-30T10:25:48;5.50;;;3.50;;
48215;SDS011;34005;48.844;10.098;2023-09-30T10:28:33;10.68;;;4.30;;
48215;SDS011;34005;48.844;10.098;2023-09-30T10:31:08;6.88;;;3.53;;
48215;SDS011;34005;48.844;10.098;2023-09-30T10:36:52;8.98;;;4.85;;
48215;SDS011;34005;48.844;10.098;2023-09-30T10:51:10;6.85;;;3.63;;
48215;SDS011;34005;48.844;10.098;2023-09-30T10:53:41;6.82;;;3.97;;
48215;SDS011;34005;48.844;10.098;2023-09-30T10:56:11;5.85;;;3.65;;
48215;SDS011;34005;48.844;10.098;2023-09-30T10:58:41;8.30;;;4.07;;
48215;SDS011;34005;48.844;10.098;2023-09-30T11:01:09;5.15;;;3.70;;
48215;SDS011;34005;48.844;10.098;2023-09-30T11:03:37;9.20;;;4.15;;
48215;SDS011;34005;48.844;10.098;2023-09-30T11:06:05;8.77;;;4.22;;
48215;SDS011;34005;48.844;10.098;2023-09-30T11:08:38;7.80;;;4.10;;
48215;SDS011;34005;48.844;10.098;2023-09-30T11:11:11;7.43;;;4.30;;
48215;SDS011;34005;48.844;10.098;2023-09-30T11:13:41;8.48;;;4.25;;
48215;SDS011;34005;48.844;10.098;2023-09-30T11:16:09;8.00;;;4.45;;
48215;SDS011;34005;48.844;10.098;2023-09-30T11:18:37;6.50;;;4.63;;
48215;SDS011;34005;48.844;10.098;2023-09-30T11:21:06;8.30;;;4.47;;
48215;SDS011;34005;48.844;10.098;2023-09-30T11:23:35;9.43;;;4.38;;
48215;SDS011;34005;48.844;10.098;2023-09-30T11:26:03;7.30;;;3.67;;
48215;SDS011;34005;48.844;10.098;2023-09-30T11:28:35;6.82;;;3.60;;
48215;SDS011;34005;48.844;10.098;2023-09-30T11:31:10;4.72;;;3.15;;
48215;SDS011;34005;48.844;10.098;2023-09-30T11:33:47;7.70;;;3.75;;
48215;SDS011;34005;48.844;10.098;2023-09-30T11:36:15;9.18;;;4.55;;
48215;SDS011;34005;48.844;10.098;2023-09-30T11:38:44;8.93;;;4.60;;
48215;SDS011;34005;48.844;10.098;2023-09-30T11:41:13;8.13;;;4.57;;
48215;SDS011;34005;48.844;10.098;2023-09-30T11:46:51;7.68;;;4.63;;
48215;SDS011;34005;48.844;10.098;2023-09-30T11:49:26;8.20;;;4.20;;
48215;SDS011;34005;48.844;10.098;2023-09-30T11:51:55;10.35;;;5.10;;
48215;SDS011;34005;48.844;10.098;2023-09-30T11:54:28;7.55;;;4.38;;
48215;SDS011;34005;48.844;10.098;2023-09-30T11:56:58;8.27;;;4.57;;
48215;SDS011;34005;48.844;10.098;2023-09-30T11:59:26;10.18;;;5.15;;
48215;SDS011;34005;48.844;10.098;2023-09-30T12:01:55;8.38;;;4.90;;
48215;SDS011;34005;48.844;10.098;2023-09-30T12:04:40;7.78;;;5.10;;
48215;SDS011;34005;48.844;10.098;2023-09-30T12:07:08;9.60;;;5.20;;
48215;SDS011;34005;48.844;10.098;2023-09-30T12:09:36;8.00;;;4.38;;
48215;SDS011;34005;48.844;10.098;2023-09-30T12:12:06;10.85;;;5.32;;
48215;SDS011;34005;48.844;10.098;2023-09-30T12:14:36;8.40;;;5.20;;
48215;SDS011;34005;48.844;10.098;2023-09-30T12:17:05;9.05;;;5.20;;
48215;SDS011;34005;48.844;10.098;2023-09-30T12:19:37;7.80;;;4.78;;
48215;SDS011;34005;48.844;10.098;2023-09-30T12:22:05;8.73;;;4.85;;
48215;SDS011;34005;48.844;10.098;2023-09-30T12:24:33;10.73;;;5.05;;
48215;SDS011;34005;48.844;10.098;2023-09-30T12:27:01;8.55;;;5.05;;
48215;SDS011;34005;48.844;10.098;2023-09-30T12:29:28;9.07;;;5.32;;
48215;SDS011;34005;48.844;10.098;2023-09-30T12:31:56;8.55;;;4.97;;
48215;SDS011;34005;48.844;10.098;2023-09-30T12:34:25;8.55;;;5.07;;
48215;SDS011;34005;48.844;10.098;2023-09-30T12:36:54;10.70;;;6.00;;
48215;SDS011;34005;48.844;10.098;2023-09-30T12:39:22;11.48;;;5.88;;
48215;SDS011;34005;48.844;10.098;2023-09-30T12:41:52;11.55;;;5.30;;
48215;SDS011;34005;48.844;10.098;2023-09-30T12:44:20;11.25;;;5.78;;
48215;SDS011;34005;48.844;10.098;2023-09-30T12:46:49;10.40;;;5.63;;
48215;SDS011;34005;48.844;10.098;2023-09-30T12:49:17;10.60;;;5.47;;
48215;SDS011;34005;48.844;10.098;2023-09-30T12:51:47;9.40;;;5.22;;
48215;SDS011;34005;48.844;10.098;2023-09-30T12:54:15;9.93;;;5.00;;
48215;SDS011;34005;48.844;10.098;2023-09-30T12:56:44;10.95;;;5.63;;
48215;SDS011;34005;48.844;10.098;2023-09-30T12:59:13;8.68;;;4.88;;
48215;SDS011;34005;48.844;10.098;2023-09-30T13:01:41;10.43;;;5.80;;
48215;SDS011;34005;48.844;10.098;2023-09-30T13:04:08;12.07;;;6.25;;
48215;SDS011;34005;48.844;10.098;2023-09-30T13:06:37;11.23;;;6.22;;
48215;SDS011;34005;48.844;10.098;2023-09-30T13:09:06;9.63;;;5.53;;
48215;SDS011;34005;48.844;10.098;2023-09-30T13:11:35;12.52;;;6.50;;
48215;SDS011;34005;48.844;10.098;2023-09-30T13:14:03;11.95;;;6.28;;
48215;SDS011;34005;48.844;10.098;2023-09-30T13:16:31;10.25;;;5.45;;
48215;SDS011;34005;48.844;10.098;2023-09-30T13:18:59;11.65;;;6.15;;
48215;SDS011;34005;48.844;10.098;2023-09-30T13:21:28;10.45;;;6.22;;
48215;SDS011;34005;48.844;10.098;2023-09-30T13:23:56;10.98;;;5.90;;
48215;SDS011;34005;48.844;10.098;2023-09-30T13:26:25;11.88;;;6.32;;
48215;SDS011;34005;48.844;10.098;2023-09-30T13:28:53;9.07;;;5.53;;
48215;SDS011;34005;48.844;10.098;2023-09-30T13:31:20;11.90;;;6.63;;
48215;SDS011;34005;48.844;10.098;2023-09-30T13:33:48;10.77;;;5.57;;
48215;SDS011;34005;48.844;10.098;2023-09-30T13:36:16;10.10;;;5.30;;
48215;SDS011;34005;48.844;10.098;2023-09-30T13:38:43;12.10;;;6.28;;
48215;SDS011;34005;48.844;10.098;2023-09-30T13:41:12;10.50;;;5.18;;
48215;SDS011;34005;48.844;10.098;2023-09-30T13:43:41;8.50;;;4.70;;
48215;SDS011;34005;48.844;10.098;2023-09-30T13:46:08;9.82;;;4.20;;
48215;SDS011;34005;48.844;10.098;2023-09-30T13:48:36;10.00;;;4.80;;
48215;SDS011;34005;48.844;10.098;2023-09-30T13:51:04;8.70;;;4.80;;
48215;SDS011;34005;48.844;10.098;2023-09-30T13:53:33;9.32;;;4.10;;
48215;SDS011;34005;48.844;10.098;2023-09-30T13:56:00;9.15;;;4.55;;
48215;SDS011;34005;48.844;10.098;2023-09-30T13:58:29;9.07;;;4.80;;
48215;SDS011;34005;48.844;10.098;2023-09-30T14:00:59;7.70;;;4.10;;
48215;SDS011;34005;48.844;10.098;2023-09-30T14:03:27;9.57;;;5.00;;
48215;SDS011;34005;48.844;10.098;2023-09-30T14:05:55;8.55;;;4.72;;
48215;SDS011;34005;48.844;10.098;2023-09-30T14:08:24;9.68;;;4.80;;
48215;SDS011;34005;48.844;10.098;2023-09-30T14:10:51;10.13;;;4.60;;
48215;SDS011;34005;48.844;10.098;2023-09-30T14:13:19;10.40;;;4.97;;
48215;SDS011;34005;48.844;10.098;2023-09-30T14:15:46;10.57;;;5.22;;
48215;SDS011;34005;48.844;10.098;2023-09-30T14:18:16;8.00;;;4.63;;
48215;SDS011;34005;48.844;10.098;2023-09-30T14:20:44;8.43;;;4.55;;
48215;SDS011;34005;48.844;10.098;2023-09-30T14:23:12;9.15;;;5.00;;
48215;SDS011;34005;48.844;10.098;2023-09-30T14:25:39;10.18;;;5.55;;
48215;SDS011;34005;48.844;10.098;2023-09-30T14:28:07;11.45;;;4.82;;
48215;SDS011;34005;48.844;10.098;2023-09-30T14:30:35;8.85;;;4.97;;
48215;SDS011;34005;48.844;10.098;2023-09-30T14:33:03;5.70;;;3.90;;
48215;SDS011;34005;48.844;10.098;2023-09-30T14:35:33;11.10;;;4.70;;
48215;SDS011;34005;48.844;10.098;2023-09-30T14:38:02;8.88;;;4.32;;
48215;SDS011;34005;48.844;10.098;2023-09-30T14:40:35;7.85;;;4.35;;
48215;SDS011;34005;48.844;10.098;2023-09-30T14:43:06;11.30;;;4.85;;
48215;SDS011;34005;48.844;10.098;2023-09-30T14:45:36;7.35;;;4.50;;
48215;SDS011;34005;48.844;10.098;2023-09-30T14:48:05;8.05;;;4.60;;
48215;SDS011;34005;48.844;10.098;2023-09-30T14:50:34;10.00;;;4.30;;
48215;SDS011;34005;48.844;10.098;2023-09-30T14:53:03;8.35;;;4.40;;
48215;SDS011;34005;48.844;10.098;2023-09-30T14:55:31;9.05;;;4.38;;
48215;SDS011;34005;48.844;10.098;2023-09-30T14:57:59;10.52;;;4.57;;
48215;SDS011;34005;48.844;10.098;2023-09-30T15:00:26;9.13;;;4.60;;
48215;SDS011;34005;48.844;10.098;2023-09-30T15:02:54;10.35;;;4.80;;
48215;SDS011;34005;48.844;10.098;2023-09-30T15:05:22;11.30;;;5.55;;
48215;SDS011;34005;48.844;10.098;2023-09-30T15:07:51;8.68;;;5.03;;
48215;SDS011;34005;48.844;10.098;2023-09-30T15:10:19;8.20;;;5.22;;
48215;SDS011;34005;48.844;10.098;2023-09-30T15:12:46;9.68;;;4.47;;
48215;SDS011;34005;48.844;10.098;2023-09-30T15:15:14;10.25;;;4.55;;
48215;SDS011;34005;48.844;10.098;2023-09-30T15:17:42;7.97;;;4.53;;
48215;SDS011;34005;48.844;10.098;2023-09-30T15:20:10;9.68;;;4.43;;
48215;SDS011;34005;48.844;10.098;2023-09-30T15:22:38;11.68;;;4.95;;
48215;SDS011;34005;48.844;10.098;2023-09-30T15:25:08;8.75;;;4.60;;
48215;SDS011;34005;48.844;10.098;2023-09-30T15:27:37;7.95;;;4.38;;
48215;SDS011;34005;48.844;10.098;2023-09-30T15:30:05;11.52;;;4.68;;
48215;SDS011;34005;48.844;10.098;2023-09-30T15:32:33;8.90;;;4.95;;
48215;SDS011;34005;48.844;10.098;2023-09-30T15:35:01;10.05;;;4.78;;
48215;SDS011;34005;48.844;10.098;2023-09-30T15:37:29;13.98;;;4.72;;
48215;SDS011;34005;48.844;10.098;2023-09-30T15:39:56;8.38;;;4.90;;
48215;SDS011;34005;48.844;10.098;2023-09-30T15:42:26;8.85;;;4.45;;
48215;SDS011;34005;48.844;10.098;2023-09-30T15:44:53;9.85;;;4.45;;
48215;SDS011;34005;48.844;10.098;2023-09-30T15:47:22;8.95;;;4.53;;
48215;SDS011;34005;48.844;10.098;2023-09-30T15:49:50;10.68;;;5.00;;
48215;SDS011;34005;48.844;10.098;2023-09-30T15:52:18;10.15;;;5.00;;
48215;SDS011;34005;48.844;10.098;2023-09-30T15:54:45;11.10;;;5.10;;
48215;SDS011;34005;48.844;10.098;2023-09-30T15:57:16;10.75;;;4.88;;
48215;SDS011;34005;48.844;10.098;2023-09-30T15:59:45;9.10;;;4.82;;
48215;SDS011;34005;48.844;10.098;2023-09-30T16:02:14;11.18;;;5.32;;
48215;SDS011;34005;48.844;10.098;2023-09-30T16:04:41;10.98;;;5.97;;
48215;SDS011;34005;48.844;10.098;2023-09-30T16:07:09;9.43;;;5.13;;
48215;SDS011;34005;48.844;10.098;2023-09-30T16:09:37;10.10;;;5.47;;